Time;durP1;ratioP1;P1;durP2;ratioP2;P2;SDS_P1;SDS_P2;PMS_P1;PMS_P2;Temp;Humidity;BMP_temperature;BMP_pressure;BME280_temperature;BME280_humidity;BME280_pressure;Samples;Min_cycle;Max_cycle;Signal;HPM_P1;HPM_P2
2021/06/15 00:01:57;;;;;;;12.00;4.40;;;;;;;14.51;76.63;98380.50;4992765;28;20098;-78
2021/06/15 00:04:22;;;;;;;7.55;3.67;;;;;;;14.53;76.74;98370.03;5007687;28;20026;-77
2021/06/15 00:06:48;;;;;;;9.82;3.65;;;;;;;14.66;76.43;98366.38;4992626;28;20034;-79
2021/06/15 00:09:13;;;;;;;6.55;4.55;;;;;;;14.56;76.68;98372.16;4993033;28;20027;-78
2021/06/15 00:11:39;;;;;;;9.48;4.25;;;;;;;14.57;76.76;98372.94;4992638;28;20041;-77
2021/06/15 00:14:05;;;;;;;5.43;4.13;;;;;;;14.53;77.39;98370.03;4992786;28;20034;-79
2021/06/15 00:16:31;;;;;;;10.38;4.80;;;;;;;14.53;77.54;98370.03;5007656;28;20408;-77
2021/06/15 00:18:57;;;;;;;9.95;4.45;;;;;;;14.45;77.55;98374.31;4992589;28;20049;-78
2021/06/15 00:21:23;;;;;;;7.57;4.15;;;;;;;14.54;77.71;98379.88;4993524;28;20491;-80
2021/06/15 00:23:49;;;;;;;9.88;4.60;;;;;;;14.34;78.32;98377.63;4993869;28;20041;-78
2021/06/15 00:26:14;;;;;;;5.85;4.07;;;;;;;14.37;78.16;98371.50;4992990;28;20026;-79
2021/06/15 00:28:39;;;;;;;11.48;4.30;;;;;;;14.43;77.75;98371.06;4993055;28;20022;-78
2021/06/15 00:31:05;;;;;;;9.48;4.22;;;;;;;14.59;77.21;98371.53;4992221;28;20764;-77
2021/06/15 00:33:30;;;;;;;9.13;4.60;;;;;;;14.44;77.95;98380.13;4992270;28;20084;-79
2021/06/15 00:35:56;;;;;;;7.13;5.30;;;;;;;14.38;78.50;98376.66;4992429;28;20057;-77
2021/06/15 00:38:21;;;;;;;9.20;5.15;;;;;;;14.36;78.26;98372.59;4992066;28;20061;-77
2021/06/15 00:40:47;;;;;;;17.27;5.35;;;;;;;14.14;78.93;98369.75;4991941;28;20096;-79
2021/06/15 00:43:12;;;;;;;14.23;5.00;;;;;;;14.11;79.60;98373.13;4990459;28;20030;-79
2021/06/15 00:45:38;;;;;;;16.15;5.10;;;;;;;14.15;79.13;98376.91;4992259;28;20061;-78
2021/06/15 00:48:04;;;;;;;7.13;5.13;;;;;;;14.09;79.03;98378.13;4999292;28;20441;-79
2021/06/15 00:50:29;;;;;;;6.72;4.63;;;;;;;14.22;78.37;98383.59;5011735;28;20030;-77
2021/06/15 00:52:55;;;;;;;8.77;5.80;;;;;;;14.03;79.44;98379.38;5011687;28;20030;-77
2021/06/15 00:55:23;;;;;;;9.30;4.00;;;;;;;13.73;80.23;98356.84;5011624;28;20129;-78
2021/06/15 00:57:49;;;;;;;4.25;3.40;;;;;;;13.87;80.33;98376.94;5011401;28;20022;-76
2021/06/15 01:00:15;;;;;;;5.15;3.58;;;;;;;13.78;80.45;98367.75;5011185;28;20030;-78
2021/06/15 01:02:41;;;;;;;8.00;3.88;;;;;;;13.82;80.54;98368.78;5010211;28;20517;-79
2021/06/15 01:05:10;;;;;;;5.28;3.45;;;;;;;13.79;80.63;98360.31;5011227;28;20439;-79
2021/06/15 01:07:54;;;;;;;11.63;5.10;;;;;;;13.90;80.51;98364.50;5011554;28;20072;-77
2021/06/15 01:10:35;;;;;;;7.47;4.18;;;;;;;13.82;80.43;98363.28;5011394;28;20037;-78
2021/06/15 01:13:19;;;;;;;4.50;3.60;;;;;;;13.70;80.97;98357.47;5011392;28;20029;-77
2021/06/15 01:15:55;;;;;;;8.73;4.95;;;;;;;13.74;81.10;98361.25;5010548;28;20505;-76
2021/06/15 01:18:24;;;;;;;7.63;3.35;;;;;;;13.91;80.50;98355.09;5011769;28;20123;-78
2021/06/15 01:21:11;;;;;;;9.13;3.75;;;;;;;13.89;80.50;98352.69;5011460;28;20042;-78
2021/06/15 01:23:48;;;;;;;5.78;3.95;;;;;;;13.85;80.54;98348.91;5011099;28;20033;-79
2021/06/15 01:26:35;;;;;;;16.08;5.55;;;;;;;13.79;80.60;98344.63;5010917;28;20053;-78
2021/06/15 01:29:09;;;;;;;9.90;4.82;;;;;;;13.70;81.46;98343.72;4993275;28;20022;-78
2021/06/15 01:31:41;;;;;;;7.72;3.97;;;;;;;13.70;81.27;98332.72;4993316;28;20427;-79
2021/06/15 01:34:13;;;;;;;12.20;4.72;;;;;;;13.77;81.30;98343.31;5010805;28;20026;-77
2021/06/15 01:36:47;;;;;;;9.35;3.90;;;;;;;13.57;82.27;98330.78;5010954;28;20113;-77
2021/06/15 01:39:18;;;;;;;5.82;3.67;;;;;;;13.50;82.74;98341.38;5010719;28;20502;-78
2021/06/15 01:42:24;;;;;;;7.95;3.90;;;;;;;13.40;83.62;98339.66;5010753;28;20389;-78
2021/06/15 01:45:28;;;;;;;12.35;4.63;;;;;;;13.26;83.33;98330.56;5010071;28;20045;-80
2021/06/15 01:48:05;;;;;;;8.90;4.65;;;;;;;13.17;83.93;98331.56;5010695;28;20076;-79
2021/06/15 01:50:34;;;;;;;13.23;4.72;;;;;;;13.12;84.27;98332.50;4993357;28;20026;-78
2021/06/15 01:53:01;;;;;;;8.43;4.70;;;;;;;13.14;84.14;98329.44;5011290;28;20030;-77
2021/06/15 01:55:28;;;;;;;8.63;5.13;;;;;;;13.19;83.43;98334.81;5012900;28;20026;-77
2021/06/15 01:57:57;;;;;;;8.40;4.30;;;;;;;13.30;82.39;98339.03;5014838;28;20021;-77
2021/06/15 02:00:25;;;;;;;7.30;3.83;;;;;;;13.01;83.18;98317.28;5014747;28;20443;-81
2021/06/15 02:02:51;;;;;;;10.18;4.57;;;;;;;12.88;84.10;98323.53;5014985;28;20100;-79
2021/06/15 02:05:22;;;;;;;6.75;4.00;;;;;;;12.99;83.92;98322.25;5014677;28;20037;-77
2021/06/15 02:07:50;;;;;;;6.10;2.97;;;;;;;13.09;83.16;98324.88;4996382;28;20036;-78
2021/06/15 02:10:17;;;;;;;7.72;4.80;;;;;;;12.98;83.33;98314.31;5014461;28;20034;-80
2021/06/15 02:12:50;;;;;;;5.75;3.75;;;;;;;13.04;83.23;98313.09;5004086;28;20030;-78
2021/06/15 02:15:17;;;;;;;8.18;4.22;;;;;;;13.07;83.39;98318.00;4994614;28;20029;-81
2021/06/15 02:17:47;;;;;;;4.82;3.83;;;;;;;13.20;82.78;98322.72;4993197;28;20065;-78
2021/06/15 02:20:14;;;;;;;15.38;4.63;;;;;;;13.08;82.82;98316.88;4994390;28;20092;-76
2021/06/15 02:22:48;;;;;;;9.82;4.30;;;;;;;13.08;82.97;98316.88;4994884;28;20411;-78
2021/06/15 02:25:20;;;;;;;12.93;4.60;;;;;;;12.82;83.96;98313.75;5007246;28;20033;-80
2021/06/15 02:27:46;;;;;;;7.82;5.07;;;;;;;12.72;84.58;98314.75;5014243;28;20026;-77
2021/06/15 02:30:13;;;;;;;6.50;4.30;;;;;;;12.53;85.51;98330.44;5014038;28;20395;-77
2021/06/15 02:32:40;;;;;;;6.40;4.15;;;;;;;12.48;85.84;98319.53;5013788;28;20040;-77
2021/06/15 02:35:08;;;;;;;8.93;5.53;;;;;;;12.47;86.04;98319.88;5013915;28;20033;-80
2021/06/15 02:37:59;;;;;;;14.48;5.30;;;;;;;12.45;86.13;98322.88;5013932;28;20053;-78
2021/06/15 02:40:27;;;;;;;6.63;4.30;;;;;;;12.49;86.24;98334.91;5013855;28;20033;-78
2021/06/15 02:42:55;;;;;;;8.60;4.47;;;;;;;12.42;86.14;98339.94;5013810;28;20080;-78
2021/06/15 02:45:24;;;;;;;10.60;4.90;;;;;;;12.42;86.21;98328.16;5013874;28;20026;-79
2021/06/15 02:47:52;;;;;;;15.45;4.70;;;;;;;12.68;84.59;98311.00;5012026;28;20621;-77
2021/06/15 02:50:20;;;;;;;10.02;4.63;;;;;;;12.55;84.92;98325.47;5013468;28;20708;-77
2021/06/15 02:53:10;;;;;;;8.48;5.05;;;;;;;12.49;85.55;98326.69;5013841;28;20079;-80
2021/06/15 02:55:47;;;;;;;6.80;5.03;;;;;;;12.40;85.91;98331.22;5010667;28;20042;-79
2021/06/15 02:58:12;;;;;;;8.05;5.50;;;;;;;12.43;85.97;98341.59;5013722;28;20453;-77
2021/06/15 03:00:38;;;;;;;11.00;5.43;;;;;;;12.40;86.02;98333.94;5009361;28;20069;-78
2021/06/15 03:03:07;;;;;;;8.40;4.70;;;;;;;12.44;85.98;98337.72;4993760;28;20080;-79
2021/06/15 03:05:33;;;;;;;11.35;5.10;;;;;;;12.51;85.89;98335.41;4993577;28;20521;-77
2021/06/15 03:07:59;;;;;;;12.88;5.00;;;;;;;12.58;85.28;98338.59;4993206;28;20113;-77
2021/06/15 03:10:26;;;;;;;7.85;4.55;;;;;;;12.55;85.86;98347.44;4993752;28;20172;-77
2021/06/15 03:13:21;;;;;;;11.50;4.88;;;;;;;12.70;85.12;98343.63;4975985;28;20026;-77
2021/06/15 03:15:49;;;;;;;8.85;4.18;;;;;;;12.72;85.48;98349.63;4992241;28;20065;-76
2021/06/15 03:18:21;;;;;;;6.97;4.80;;;;;;;12.62;86.45;98344.31;4993608;28;20114;-79
2021/06/15 03:20:49;;;;;;;6.38;4.85;;;;;;;12.56;87.41;98340.81;4992197;28;20479;-76
2021/06/15 03:23:33;;;;;;;6.88;4.85;;;;;;;12.65;87.17;98341.78;4993657;28;20034;-75
2021/06/15 03:26:03;;;;;;;6.53;4.85;;;;;;;12.61;87.14;98343.50;4996978;28;20117;-80
2021/06/15 03:28:31;;;;;;;9.77;4.82;;;;;;;12.90;86.01;98341.34;4991951;28;20504;-77
2021/06/15 03:30:57;;;;;;;5.30;4.03;;;;;;;13.06;84.79;98344.63;4993248;28;20026;-75
2021/06/15 03:33:23;;;;;;;10.52;4.43;;;;;;;13.13;83.67;98328.63;4993300;28;20053;-75
2021/06/15 03:35:56;;;;;;;5.97;3.95;;;;;;;13.37;83.01;98336.69;4975399;28;20073;-76
2021/06/15 03:38:24;;;;;;;8.27;3.88;;;;;;;13.71;80.96;98330.81;4993154;28;20050;-75
2021/06/15 03:40:57;;;;;;;7.32;3.83;;;;;;;14.10;79.12;98343.97;4993011;28;20044;-76
2021/06/15 03:43:24;;;;;;;6.30;4.07;;;;;;;14.15;78.50;98346.63;4992933;28;20093;-75
2021/06/15 03:45:56;;;;;;;4.97;3.90;;;;;;;14.61;76.71;98341.75;4992793;28;20034;-76
2021/06/15 03:48:24;;;;;;;6.95;4.35;;;;;;;14.50;76.56;98345.06;4992608;28;20101;-77
2021/06/15 03:50:55;;;;;;;8.45;3.70;;;;;;;14.18;77.84;98354.28;4992735;28;20041;-74
2021/06/15 03:53:23;;;;;;;5.32;3.67;;;;;;;14.65;76.30;98355.69;4991449;28;20555;-75
2021/06/15 03:55:50;;;;;;;9.88;4.10;;;;;;;14.79;74.67;98354.50;4992400;28;20057;-74
2021/06/15 03:58:16;;;;;;;8.27;4.20;;;;;;;15.31;73.21;98366.69;4992648;28;20050;-74
2021/06/15 04:00:48;;;;;;;6.65;4.32;;;;;;;15.65;71.67;98354.22;4996536;28;20478;-73
2021/06/15 04:03:15;;;;;;;4.78;3.33;;;;;;;15.95;69.92;98354.16;5012053;28;20112;-72
2021/06/15 04:05:42;;;;;;;6.43;3.47;;;;;;;15.46;71.87;98354.44;5012251;28;20497;-72
2021/06/15 04:08:12;;;;;;;10.32;3.53;;;;;;;16.23;69.52;98353.91;4994574;28;20414;-72
2021/06/15 04:10:40;;;;;;;7.45;3.70;;;;;;;16.58;67.62;98356.41;5012226;28;20467;-73
2021/06/15 04:13:07;;;;;;;10.18;4.38;;;;;;;16.45;67.27;98351.00;5011767;28;20137;-73
2021/06/15 04:15:34;;;;;;;5.70;3.60;;;;;;;16.53;67.15;98352.97;5011754;28;20058;-71
2021/06/15 04:18:02;;;;;;;6.47;3.92;;;;;;;16.59;66.53;98366.34;5011295;28;20022;-72
2021/06/15 04:20:31;;;;;;;7.22;3.42;;;;;;;16.57;66.70;98363.06;5011839;28;20030;-71
2021/06/15 04:23:01;;;;;;;3.92;3.47;;;;;;;16.37;67.18;98365.63;4994238;28;20029;-71
2021/06/15 04:25:31;;;;;;;8.30;4.03;;;;;;;16.87;65.81;98375.09;5011776;28;20105;-71
2021/06/15 04:27:56;;;;;;;10.68;4.53;;;;;;;16.33;67.14;98359.13;5011433;28;20364;-71
2021/06/15 04:30:24;;;;;;;8.60;3.90;;;;;;;16.22;67.67;98368.84;5011665;28;20021;-71
2021/06/15 04:33:02;;;;;;;8.18;3.40;;;;;;;16.34;67.47;98364.31;5011494;28;20036;-72
2021/06/15 04:35:41;;;;;;;5.78;3.83;;;;;;;16.32;67.60;98365.78;4993844;28;20045;-71
2021/06/15 04:38:13;;;;;;;8.10;5.47;;;;;;;16.38;67.40;98367.25;4993853;28;20034;-72
2021/06/15 04:40:44;;;;;;;12.07;3.75;;;;;;;16.11;67.86;98368.34;5011313;28;20084;-71
2021/06/15 04:43:15;;;;;;;5.72;3.58;;;;;;;16.01;68.21;98355.63;5011440;28;20026;-73
2021/06/15 04:45:44;;;;;;;11.20;4.30;;;;;;;15.69;69.67;98367.06;5011356;28;20025;-74
2021/06/15 04:48:17;;;;;;;8.10;4.63;;;;;;;15.67;69.91;98371.25;5011165;28;20561;-73
2021/06/15 04:50:43;;;;;;;8.43;3.88;;;;;;;15.58;70.06;98374.00;5011018;28;20080;-70
2021/06/15 04:53:09;;;;;;;11.85;5.28;;;;;;;15.38;71.23;98366.25;5011328;28;20497;-72
2021/06/15 04:55:39;;;;;;;7.18;4.70;;;;;;;15.85;69.26;98371.00;5011393;28;20034;-73
2021/06/15 04:58:11;;;;;;;6.53;3.55;;;;;;;15.89;69.44;98372.00;5011154;28;20032;-73
2021/06/15 05:00:38;;;;;;;10.05;4.05;;;;;;;15.52;70.54;98373.31;5000223;28;20029;-72
2021/06/15 05:03:06;;;;;;;5.50;4.53;;;;;;;15.76;70.04;98377.63;5011005;28;20054;-72
2021/06/15 05:05:32;;;;;;;8.98;4.57;;;;;;;15.67;70.37;98374.00;4993230;28;20100;-71
2021/06/15 05:08:04;;;;;;;7.38;5.03;;;;;;;15.31;71.32;98374.16;5010974;28;20113;-72
2021/06/15 05:10:32;;;;;;;8.70;5.45;;;;;;;15.54;70.63;98381.25;5010924;28;20030;-73
2021/06/15 05:12:58;;;;;;;8.75;4.45;;;;;;;15.40;70.94;98377.75;5010917;28;20518;-72
2021/06/15 05:15:27;;;;;;;4.32;3.55;;;;;;;15.98;69.51;98381.13;5010767;28;20109;-72
2021/06/15 05:17:55;;;;;;;8.02;4.43;;;;;;;15.94;69.11;98380.13;4991250;28;20522;-73
2021/06/15 05:20:21;;;;;;;7.10;4.40;;;;;;;15.56;70.28;98384.53;4995534;28;20030;-71
2021/06/15 05:23:00;;;;;;;13.35;4.40;;;;;;;15.54;70.75;98382.06;4990222;28;20069;-71
2021/06/15 05:25:26;;;;;;;13.75;4.38;;;;;;;15.23;71.63;98383.97;4991303;28;20026;-71
2021/06/15 05:27:53;;;;;;;8.48;4.35;;;;;;;15.12;72.05;98385.38;4991184;28;20026;-70
2021/06/15 05:30:19;;;;;;;9.38;4.30;;;;;;;15.42;71.77;98383.75;4990994;28;20030;-70
2021/06/15 05:32:44;;;;;;;5.78;3.70;;;;;;;15.80;69.62;98381.38;4991667;28;20671;-74
2021/06/15 05:35:11;;;;;;;6.35;3.67;;;;;;;16.26;67.96;98375.34;4991077;28;20498;-74
2021/06/15 05:37:37;;;;;;;10.60;5.65;;;;;;;16.75;65.83;98374.13;4990289;28;20558;-74
2021/06/15 05:40:03;;;;;;;6.03;4.53;;;;;;;16.87;65.28;98385.34;4989924;28;20031;-76
2021/06/15 05:42:29;;;;;;;4.78;3.85;;;;;;;16.96;64.82;98384.19;4990128;28;20480;-74
2021/06/15 05:44:55;;;;;;;6.88;3.85;;;;;;;16.87;65.49;98372.34;4973293;28;20057;-74
2021/06/15 05:47:21;;;;;;;11.82;4.90;;;;;;;17.00;65.24;98384.38;4973274;28;20049;-75
2021/06/15 05:49:46;;;;;;;11.45;4.90;;;;;;;16.95;65.57;98385.34;4991139;28;20034;-74
2021/06/15 05:52:12;;;;;;;9.57;5.82;;;;;;;17.02;65.03;98398.66;4973684;28;20398;-75
2021/06/15 05:54:39;;;;;;;13.57;5.90;;;;;;;17.07;65.52;98388.25;4990532;28;20182;-75
2021/06/15 05:57:06;;;;;;;18.15;7.68;;;;;;;17.08;65.15;98391.81;4973390;28;20475;-75
2021/06/15 05:59:31;;;;;;;15.57;6.88;;;;;;;17.06;65.55;98392.16;4991035;28;20076;-75
2021/06/15 06:01:57;;;;;;;12.82;6.40;;;;;;;17.16;65.59;98387.44;4990869;28;20119;-74
2021/06/15 06:04:25;;;;;;;11.77;5.07;;;;;;;17.31;64.88;98390.50;4990880;28;20097;-76
2021/06/15 06:09:37;;;;;;;12.05;6.22;;;;;;;17.25;64.72;98382.69;4991009;28;20421;-73
2021/06/15 06:12:03;;;;;;;13.32;5.30;;;;;;;17.33;64.77;98387.38;4990935;28;20030;-75
2021/06/15 06:14:28;;;;;;;11.90;5.45;;;;;;;17.77;63.91;98378.66;4990747;28;20088;-75
2021/06/15 06:16:54;;;;;;;9.98;4.97;;;;;;;18.00;63.16;98385.56;4990969;28;20028;-74
2021/06/15 06:19:20;;;;;;;8.90;5.35;;;;;;;18.16;62.22;98377.50;4990866;28;20561;-75
2021/06/15 06:21:45;;;;;;;7.28;5.00;;;;;;;18.15;62.33;98382.22;4990404;28;20390;-74
2021/06/15 06:24:12;;;;;;;9.45;5.07;;;;;;;17.85;62.90;98388.91;4991451;28;20031;-75
2021/06/15 06:26:38;;;;;;;19.48;5.43;;;;;;;17.74;62.71;98381.28;4991028;28;20034;-74
2021/06/15 06:29:04;;;;;;;6.40;4.82;;;;;;;17.82;62.17;98378.50;4989530;28;20030;-74
2021/06/15 06:31:31;;;;;;;10.98;4.78;;;;;;;17.88;61.29;98382.72;4990574;28;20414;-74
2021/06/15 06:33:56;;;;;;;6.85;4.63;;;;;;;17.90;60.80;98385.94;4973263;28;20073;-73
2021/06/15 06:36:22;;;;;;;8.20;5.38;;;;;;;17.90;60.54;98379.59;4973342;28;20026;-74
2021/06/15 06:38:51;;;;;;;9.30;4.00;;;;;;;18.40;58.99;98377.69;4973501;28;20490;-75
2021/06/15 06:41:16;;;;;;;7.30;4.40;;;;;;;18.17;59.37;98376.34;4993480;28;20042;-74
2021/06/15 06:43:42;;;;;;;6.50;4.78;;;;;;;18.38;59.79;98373.63;4994339;28;20077;-73
2021/06/15 06:46:07;;;;;;;9.52;5.07;;;;;;;18.26;59.87;98371.59;4994227;28;20018;-75
2021/06/15 06:48:33;;;;;;;7.97;4.45;;;;;;;18.30;59.99;98374.47;4994081;28;20046;-75
2021/06/15 06:50:58;;;;;;;6.07;4.20;;;;;;;18.40;59.38;98376.88;4994111;28;20022;-74
2021/06/15 06:53:23;;;;;;;12.70;4.65;;;;;;;18.44;58.93;98366.75;4994653;28;20030;-74
2021/06/15 06:55:49;;;;;;;6.40;4.28;;;;;;;18.61;58.19;98372.19;4994017;28;20032;-75
2021/06/15 06:58:14;;;;;;;8.82;5.32;;;;;;;18.77;58.05;98367.66;4976230;28;20034;-75
2021/06/15 07:00:40;;;;;;;8.00;4.38;;;;;;;18.91;57.50;98364.63;4993583;28;20070;-74
2021/06/15 07:03:05;;;;;;;7.88;4.57;;;;;;;18.87;57.52;98364.47;4976459;28;20026;-75
2021/06/15 07:05:31;;;;;;;12.32;4.15;;;;;;;19.21;55.36;98372.47;4976490;28;20030;-74
2021/06/15 07:07:56;;;;;;;10.27;4.25;;;;;;;18.93;55.45;98370.63;4993701;28;20033;-74
2021/06/15 07:10:22;;;;;;;7.10;4.40;;;;;;;19.18;55.54;98364.84;4976174;28;20441;-74
2021/06/15 07:12:48;;;;;;;9.80;5.32;;;;;;;19.35;55.33;98366.63;4993876;28;20034;-75
2021/06/15 07:15:14;;;;;;;9.50;4.47;;;;;;;19.23;55.52;98372.16;4976464;28;20033;-74
2021/06/15 07:17:40;;;;;;;12.35;4.82;;;;;;;19.56;54.81;98366.59;4993727;28;20019;-73
2021/06/15 07:20:06;;;;;;;7.60;4.60;;;;;;;19.49;55.32;98366.34;4993495;28;20018;-74
2021/06/15 07:22:32;;;;;;;7.97;4.20;;;;;;;19.61;54.82;98360.81;4993499;28;20125;-73
2021/06/15 07:24:58;;;;;;;7.43;4.55;;;;;;;19.69;54.48;98362.69;4992589;28;20030;-75
2021/06/15 07:27:23;;;;;;;9.10;4.05;;;;;;;19.96;53.93;98348.13;4993343;28;20030;-73
2021/06/15 07:29:49;;;;;;;12.05;4.07;;;;;;;19.95;52.91;98356.81;4992135;28;20438;-73
2021/06/15 07:32:14;;;;;;;8.82;4.45;;;;;;;20.19;52.93;98354.03;4993004;28;20030;-75
2021/06/15 07:34:40;;;;;;;8.63;4.20;;;;;;;20.14;52.15;98348.72;4975535;28;20800;-73
2021/06/15 07:37:05;;;;;;;5.15;3.00;;;;;;;20.54;50.79;98354.34;4993770;28;20501;-74
2021/06/15 07:39:31;;;;;;;7.80;3.92;;;;;;;20.67;50.18;98353.19;4993602;28;20022;-74
2021/06/15 07:41:57;;;;;;;6.28;4.75;;;;;;;20.95;49.35;98353.19;4975644;28;20042;-74
2021/06/15 07:44:22;;;;;;;8.10;4.53;;;;;;;21.07;49.45;98351.19;4993509;28;20037;-74
2021/06/15 07:46:48;;;;;;;4.90;3.50;;;;;;;21.20;47.91;98338.88;4992957;28;20053;-74
2021/06/15 07:49:13;;;;;;;13.00;3.70;;;;;;;21.23;48.21;98340.94;4975674;28;20031;-74
2021/06/15 07:51:39;;;;;;;6.13;3.58;;;;;;;21.35;48.01;98345.63;4990668;28;20050;-74
2021/06/15 07:54:05;;;;;;;8.45;3.72;;;;;;;21.46;47.38;98346.72;4993667;28;20030;-74
2021/06/15 07:56:30;;;;;;;12.23;3.67;;;;;;;21.55;47.16;98343.78;4992875;28;20417;-75
2021/06/15 07:58:56;;;;;;;7.65;3.38;;;;;;;21.71;46.00;98336.22;4993001;28;20477;-74
2021/06/15 08:01:21;;;;;;;10.15;3.53;;;;;;;21.34;46.62;98339.25;4992833;28;20030;-75
2021/06/15 08:03:47;;;;;;;5.10;3.45;;;;;;;21.43;46.64;98341.03;4975137;28;20471;-76
2021/06/15 08:06:12;;;;;;;7.43;3.00;;;;;;;21.58;46.33;98331.91;4992711;28;20026;-74
2021/06/15 08:08:38;;;;;;;7.32;3.60;;;;;;;21.66;45.33;98330.91;4993188;28;20038;-74
2021/06/15 08:11:03;;;;;;;8.18;3.50;;;;;;;21.46;45.42;98329.22;4992783;28;20050;-76
2021/06/15 08:13:29;;;;;;;6.53;2.95;;;;;;;21.36;45.74;98331.34;4992635;28;20402;-74
2021/06/15 08:15:55;;;;;;;5.68;3.08;;;;;;;21.84;45.71;98323.81;4992150;28;20042;-75
2021/06/15 08:18:21;;;;;;;5.78;4.13;;;;;;;22.07;44.89;98327.63;4992764;28;20029;-74
2021/06/15 08:20:50;;;;;;;8.20;3.80;;;;;;;22.03;44.79;98328.69;4992458;28;20030;-74
2021/06/15 08:23:17;;;;;;;13.77;3.58;;;;;;;22.18;44.81;98311.94;4991346;28;20030;-75
2021/06/15 08:25:44;;;;;;;5.75;3.22;;;;;;;22.26;44.81;98316.53;4992156;28;20030;-75
2021/06/15 08:28:10;;;;;;;6.70;3.10;;;;;;;22.50;44.56;98325.81;5002698;28;20030;-73
2021/06/15 08:30:36;;;;;;;5.78;3.38;;;;;;;22.78;44.27;98318.09;5006464;28;20079;-73
2021/06/15 08:33:03;;;;;;;6.20;3.28;;;;;;;22.78;44.03;98313.31;5005481;28;20478;-73
2021/06/15 08:35:28;;;;;;;7.88;3.42;;;;;;;22.79;43.58;98316.91;4997889;28;20026;-74
2021/06/15 08:37:54;;;;;;;6.97;3.55;;;;;;;23.09;43.19;98311.53;4999407;28;20080;-73
2021/06/15 08:40:20;;;;;;;8.68;4.35;;;;;;;22.99;43.09;98312.97;5001270;28;20479;-74
2021/06/15 08:42:45;;;;;;;6.35;3.40;;;;;;;23.00;43.35;98308.16;5000981;28;20030;-73
2021/06/15 08:45:13;;;;;;;7.30;3.63;;;;;;;23.14;43.79;98312.06;4981698;28;20471;-75
2021/06/15 08:47:47;;;;;;;5.40;3.38;;;;;;;23.04;43.42;98306.25;5000571;28;20049;-75
2021/06/15 08:50:17;;;;;;;8.40;3.45;;;;;;;23.15;43.26;98305.28;4993967;28;20399;-74
2021/06/15 08:52:42;;;;;;;5.03;3.22;;;;;;;23.30;42.53;98300.81;5011521;28;20478;-75
2021/06/15 08:55:08;;;;;;;6.90;3.20;;;;;;;23.38;42.30;98305.31;5012222;28;20037;-75
2021/06/15 08:57:36;;;;;;;5.57;2.67;;;;;;;23.27;41.96;98299.56;5011980;28;20026;-76
2021/06/15 09:00:06;;;;;;;8.40;4.10;;;;;;;23.16;42.61;98304.13;4993963;28;20107;-80
2021/06/15 09:02:39;;;;;;;5.40;3.22;;;;;;;22.98;42.02;98294.59;4977263;28;20033;-76
2021/06/15 09:05:04;;;;;;;5.25;2.85;;;;;;;23.07;42.26;98302.72;4993741;28;20064;-76
2021/06/15 09:07:59;;;;;;;4.15;2.83;;;;;;;23.00;43.35;98297.81;5011500;28;20085;-75
2021/06/15 09:10:30;;;;;;;7.85;3.22;;;;;;;22.96;42.66;98293.34;4993905;28;20038;-76
2021/06/15 09:12:55;;;;;;;9.00;2.90;;;;;;;23.13;43.05;98290.91;4993872;28;20052;-75
2021/06/15 09:15:22;;;;;;;7.30;3.45;;;;;;;23.17;42.28;98290.97;5011389;28;20030;-73
2021/06/15 09:17:48;;;;;;;5.60;2.90;;;;;;;23.36;42.09;98282.56;5011329;28;20022;-73
2021/06/15 09:20:22;;;;;;;4.05;2.67;;;;;;;23.56;41.88;98281.34;5011088;28;20045;-75
2021/06/15 09:22:57;;;;;;;6.97;2.95;;;;;;;23.94;41.39;98286.78;5011283;28;20029;-72
2021/06/15 09:25:24;;;;;;;7.22;3.97;;;;;;;24.03;40.12;98280.91;5012175;28;20056;-74
2021/06/15 09:27:51;;;;;;;7.25;2.95;;;;;;;23.90;41.04;98268.34;5005236;28;20029;-76
2021/06/15 09:30:17;;;;;;;7.90;3.35;;;;;;;23.93;40.89;98265.59;5003416;28;20033;-73
2021/06/15 09:32:44;;;;;;;6.68;3.08;;;;;;;24.01;40.33;98280.50;4997880;28;20109;-74
2021/06/15 09:35:28;;;;;;;5.90;2.80;;;;;;;23.96;41.12;98272.44;5001277;28;20061;-74
2021/06/15 09:37:57;;;;;;;4.53;3.08;;;;;;;23.78;41.26;98266.56;5001173;28;20479;-76
2021/06/15 09:40:31;;;;;;;7.25;3.17;;;;;;;23.59;41.54;98269.41;4987412;28;20044;-74
2021/06/15 09:43:09;;;;;;;6.93;3.10;;;;;;;23.66;41.61;98266.75;4991440;28;20496;-73
2021/06/15 09:45:38;;;;;;;5.05;3.47;;;;;;;23.53;42.13;98264.50;4993367;28;20102;-73
2021/06/15 09:48:28;;;;;;;5.70;3.05;;;;;;;23.56;41.88;98264.59;5000532;28;20114;-74
2021/06/15 09:51:00;;;;;;;6.70;3.03;;;;;;;23.88;41.79;98259.53;4999656;28;20034;-76
2021/06/15 09:53:34;;;;;;;5.60;2.40;;;;;;;24.01;41.69;98260.94;4996272;28;20026;-74
2021/06/15 09:56:05;;;;;;;7.72;3.00;;;;;;;24.27;41.22;98248.97;4991484;28;20505;-74
2021/06/15 09:58:54;;;;;;;4.13;2.58;;;;;;;24.45;41.04;98256.41;4989126;28;20117;-75
2021/06/15 10:01:34;;;;;;;9.80;2.65;;;;;;;24.67;39.74;98251.09;4991141;28;20038;-74
2021/06/15 10:04:11;;;;;;;4.43;2.85;;;;;;;24.74;39.95;98245.59;4973687;28;20545;-75
2021/06/15 10:06:40;;;;;;;4.40;2.78;;;;;;;24.65;39.88;98251.47;4978591;28;20026;-77
2021/06/15 10:09:06;;;;;;;5.07;2.85;;;;;;;24.72;40.28;98245.13;4986942;28;20522;-76
2021/06/15 10:11:32;;;;;;;8.52;2.72;;;;;;;24.65;39.96;98242.28;4997425;28;20041;-77
2021/06/15 10:13:58;;;;;;;11.57;4.35;;;;;;;24.70;40.10;98236.31;4998910;28;20063;-78
2021/06/15 10:16:24;;;;;;;6.25;2.47;;;;;;;24.79;39.88;98234.84;5002838;28;20506;-78
2021/06/15 10:18:49;;;;;;;6.18;2.90;;;;;;;25.06;39.74;98231.97;4984262;28;20031;-79
2021/06/15 10:21:17;;;;;;;6.20;2.90;;;;;;;25.25;40.19;98240.19;5003059;28;20030;-76
2021/06/15 10:23:46;;;;;;;4.38;3.70;;;;;;;24.90;40.74;98233.00;4984467;28;20022;-78
2021/06/15 10:26:12;;;;;;;4.38;2.70;;;;;;;24.92;40.83;98235.44;5003405;28;20371;-77
2021/06/15 10:28:39;;;;;;;5.38;3.45;;;;;;;25.00;41.12;98237.09;4984472;28;20371;-78
2021/06/15 10:31:05;;;;;;;6.45;2.80;;;;;;;24.90;40.97;98226.63;5005418;28;20025;-80
2021/06/15 10:33:44;;;;;;;6.90;3.20;;;;;;;25.13;40.98;98224.44;5003095;28;20022;-77
2021/06/15 10:36:10;;;;;;;5.38;2.85;;;;;;;25.25;40.53;98221.34;5003574;28;20042;-78
2021/06/15 10:38:44;;;;;;;12.77;3.80;;;;;;;25.19;40.18;98222.91;4985546;28;20211;-78
2021/06/15 10:41:20;;;;;;;4.80;3.22;;;;;;;24.91;40.80;98217.81;4988449;28;20026;-78
2021/06/15 10:43:46;;;;;;;7.22;3.30;;;;;;;24.74;41.11;98200.81;5002208;28;20025;-77
2021/06/15 10:46:12;;;;;;;3.90;3.13;;;;;;;24.82;42.18;98210.91;5000774;28;20026;-77
2021/06/15 10:48:55;;;;;;;9.98;4.15;;;;;;;24.89;40.84;98200.59;5003256;28;20498;-76
2021/06/15 10:51:35;;;;;;;9.13;3.65;;;;;;;24.98;40.72;98201.09;4983593;28;20068;-77
2021/06/15 10:54:02;;;;;;;7.05;3.55;;;;;;;25.30;40.57;98201.41;5000437;28;20023;-76
2021/06/15 10:56:34;;;;;;;4.93;3.20;;;;;;;25.20;40.87;98206.91;5004008;28;20026;-77
2021/06/15 10:59:05;;;;;;;4.00;2.95;;;;;;;25.32;41.20;98198.22;5001039;28;20022;-76
2021/06/15 11:01:38;;;;;;;4.22;3.13;;;;;;;25.46;41.20;98187.97;5002390;28;20086;-76
2021/06/15 11:04:08;;;;;;;6.47;3.33;;;;;;;25.26;41.28;98178.16;5001503;28;20471;-77
2021/06/15 11:06:34;;;;;;;4.15;3.05;;;;;;;24.76;41.99;98176.03;4998248;28;20021;-78
2021/06/15 11:09:05;;;;;;;5.25;3.70;;;;;;;25.03;41.75;98164.34;4985354;28;20073;-78
2021/06/15 11:11:32;;;;;;;4.57;3.38;;;;;;;24.99;41.74;98165.50;4999696;28;20077;-75
2021/06/15 11:14:10;;;;;;;7.63;3.58;;;;;;;25.10;42.09;98168.41;5000450;28;20042;-75
2021/06/15 11:16:36;;;;;;;5.20;3.35;;;;;;;24.86;42.63;98167.78;5000550;28;20033;-75
2021/06/15 11:19:12;;;;;;;4.47;3.35;;;;;;;24.97;42.16;98171.50;4984833;28;20029;-78
2021/06/15 11:22:02;;;;;;;5.22;3.28;;;;;;;24.98;41.71;98159.09;5002469;28;20065;-75
2021/06/15 11:24:50;;;;;;;5.70;3.10;;;;;;;24.91;41.41;98156.22;4975990;28;20034;-76
2021/06/15 11:27:32;;;;;;;9.05;3.88;;;;;;;25.10;41.54;98140.41;5002286;28;20034;-78
2021/06/15 11:30:18;;;;;;;4.68;3.60;;;;;;;25.16;41.18;98152.84;4984572;28;20032;-78
2021/06/15 11:33:05;;;;;;;6.57;3.60;;;;;;;25.06;41.16;98157.16;5001618;28;20030;-76
2021/06/15 11:35:39;;;;;;;4.03;3.63;;;;;;;24.93;41.92;98148.28;5001554;28;20034;-75
2021/06/15 11:38:05;;;;;;;5.20;3.67;;;;;;;24.97;41.45;98143.50;4982925;28;20031;-77
2021/06/15 11:40:40;;;;;;;5.15;3.00;;;;;;;25.04;41.61;98137.16;5002858;28;20030;-77
2021/06/15 11:43:08;;;;;;;4.78;3.38;;;;;;;25.20;41.42;98143.31;5000895;28;20030;-77
2021/06/15 11:45:36;;;;;;;7.22;2.70;;;;;;;25.21;41.66;98136.53;5000249;28;20033;-76